Portada
METAR-TAF:

METAR-TAF

Aeroports :

Londrina, Paranà, Brasil

latitud: 23-20S, longitud: 051-08W, altitud: 569 m

Observació

L'informe es va fer fa 5 minuts, a les 21:00 UTC
Vent 1 kt del Sud-Est
Temperatura 22°C
Humitat 60%
Pressió 1022 hPa
Visibilitat 10 km o més
sense núvols per sota de 1500 mi sense presència de cumulonimbus.

METAR: SBLO 192100Z 14001KT CAVOK 22/14 Q1022

Hora: 18:05 (21:05 UTC)

Pronòstic

L'informe es va fer fa 5 hores i 35 minuts, a les 15:30 UTC
Pronòstic vàlid del 19 a les 18 UTC al 20 a les 06 UTC
Vent 9 kt del Sud-Est
Visibilitat 10 km o més
sense núvols per sota de 1500 mi sense presència de cumulonimbus.

TAF: SBLO 191530Z 1918/2006 13009KT CAVOK TX23/1918Z TN13/2005Z RMK PE G

Observacions i pronòstics meteorològics de més de 4000 aeroports (METAR i TAF).

Les estacions disponibles són els punts grocs i vermells al mapa.

Posi el ratolí al punt desitjat per veure el nom de l'estació.

Feu clic per veure les observacions i els pronòstics meteorològics.

Per canviar el mapa: feu clic els botons verds amb una creu de color negre per apropar; al botó verd amb un guió per allunyar la imatge; o en les fletxes verdes per a mapes adjacents.


METAR-TAF: